sensor_id;sensor_type;location;lat;lon;timestamp;pressure;altitude;pressure_sealevel;temperature;humidity
15694;BME280;7947;48.834;9.132;2023-04-03T00:00:22;98956.25;;;6.14;65.93
15694;BME280;7947;48.834;9.132;2023-04-03T00:03:26;98964.03;;;6.15;66.05
15694;BME280;7947;48.834;9.132;2023-04-03T00:06:28;98956.41;;;6.19;65.99
15694;BME280;7947;48.834;9.132;2023-04-03T00:09:31;98960.09;;;6.18;65.28
15694;BME280;7947;48.834;9.132;2023-04-03T00:12:34;98958.72;;;6.15;65.71
15694;BME280;7947;48.834;9.132;2023-04-03T00:15:38;98964.34;;;6.07;65.32
15694;BME280;7947;48.834;9.132;2023-04-03T00:18:43;98958.13;;;6.13;65.73
15694;BME280;7947;48.834;9.132;2023-04-03T00:21:46;98957.16;;;6.08;65.84
15694;BME280;7947;48.834;9.132;2023-04-03T00:24:48;98965.53;;;6.11;65.85
15694;BME280;7947;48.834;9.132;2023-04-03T00:27:51;98954.66;;;6.13;65.83
15694;BME280;7947;48.834;9.132;2023-04-03T00:30:54;98959.88;;;6.19;66.52
15694;BME280;7947;48.834;9.132;2023-04-03T00:33:58;98965.66;;;6.16;66.37
15694;BME280;7947;48.834;9.132;2023-04-03T00:37:01;98959.50;;;6.16;66.13
15694;BME280;7947;48.834;9.132;2023-04-03T00:40:05;98953.75;;;6.19;66.12
15694;BME280;7947;48.834;9.132;2023-04-03T00:43:11;98953.88;;;6.24;65.31
15694;BME280;7947;48.834;9.132;2023-04-03T00:46:15;98957.78;;;6.21;66.41
15694;BME280;7947;48.834;9.132;2023-04-03T00:49:19;98957.72;;;6.28;65.97
15694;BME280;7947;48.834;9.132;2023-04-03T00:52:26;98959.34;;;6.29;65.45
15694;BME280;7947;48.834;9.132;2023-04-03T00:55:31;98957.25;;;6.31;66.63
15694;BME280;7947;48.834;9.132;2023-04-03T00:58:37;98960.34;;;6.16;66.26
15694;BME280;7947;48.834;9.132;2023-04-03T01:01:42;98957.31;;;6.13;65.88
15694;BME280;7947;48.834;9.132;2023-04-03T01:04:47;98961.09;;;6.05;66.54
15694;BME280;7947;48.834;9.132;2023-04-03T01:07:51;98957.03;;;6.03;66.17
15694;BME280;7947;48.834;9.132;2023-04-03T01:10:54;98950.88;;;6.02;66.81
15694;BME280;7947;48.834;9.132;2023-04-03T01:13:57;98944.06;;;6.06;67.79
15694;BME280;7947;48.834;9.132;2023-04-03T01:17:00;98951.13;;;6.01;67.40
15694;BME280;7947;48.834;9.132;2023-04-03T01:23:48;98951.25;;;6.06;66.64
15694;BME280;7947;48.834;9.132;2023-04-03T01:26:55;98949.94;;;5.97;66.81
15694;BME280;7947;48.834;9.132;2023-04-03T01:29:58;98945.22;;;5.99;67.03
15694;BME280;7947;48.834;9.132;2023-04-03T01:33:02;98951.94;;;6.01;66.92
15694;BME280;7947;48.834;9.132;2023-04-03T01:36:08;98956.31;;;5.96;66.95
15694;BME280;7947;48.834;9.132;2023-04-03T01:39:12;98957.84;;;6.03;66.81
15694;BME280;7947;48.834;9.132;2023-04-03T01:42:14;98961.34;;;6.04;66.77
15694;BME280;7947;48.834;9.132;2023-04-03T01:45:17;98964.19;;;6.02;67.08
15694;BME280;7947;48.834;9.132;2023-04-03T01:48:21;98959.78;;;5.96;67.01
15694;BME280;7947;48.834;9.132;2023-04-03T01:51:24;98954.38;;;5.85;67.19
15694;BME280;7947;48.834;9.132;2023-04-03T01:54:27;98959.50;;;5.86;67.65
15694;BME280;7947;48.834;9.132;2023-04-03T01:57:30;98959.28;;;5.88;66.96
15694;BME280;7947;48.834;9.132;2023-04-03T02:00:33;98966.56;;;5.92;66.34
15694;BME280;7947;48.834;9.132;2023-04-03T02:03:37;98959.06;;;5.89;66.25
15694;BME280;7947;48.834;9.132;2023-04-03T02:06:40;98961.94;;;5.88;66.14
15694;BME280;7947;48.834;9.132;2023-04-03T02:09:43;98962.19;;;5.86;66.57
15694;BME280;7947;48.834;9.132;2023-04-03T02:12:45;98959.56;;;5.80;67.29
15694;BME280;7947;48.834;9.132;2023-04-03T02:15:48;98967.53;;;5.80;66.44
15694;BME280;7947;48.834;9.132;2023-04-03T02:18:52;98957.06;;;5.85;66.92
15694;BME280;7947;48.834;9.132;2023-04-03T02:21:55;98962.97;;;5.87;66.84
15694;BME280;7947;48.834;9.132;2023-04-03T02:24:58;98962.31;;;5.91;67.19
15694;BME280;7947;48.834;9.132;2023-04-03T02:28:02;98959.78;;;5.96;66.72
15694;BME280;7947;48.834;9.132;2023-04-03T02:31:05;98959.63;;;5.91;64.49
15694;BME280;7947;48.834;9.132;2023-04-03T02:34:10;98961.94;;;5.88;64.94
15694;BME280;7947;48.834;9.132;2023-04-03T02:37:13;98962.81;;;5.82;64.34
15694;BME280;7947;48.834;9.132;2023-04-03T02:40:16;98966.09;;;5.84;64.13
15694;BME280;7947;48.834;9.132;2023-04-03T02:43:18;98972.94;;;5.91;64.11
15694;BME280;7947;48.834;9.132;2023-04-03T02:46:21;98961.25;;;5.92;63.07
15694;BME280;7947;48.834;9.132;2023-04-03T02:49:25;98961.06;;;5.94;62.56
15694;BME280;7947;48.834;9.132;2023-04-03T02:52:28;98955.41;;;6.02;62.12
15694;BME280;7947;48.834;9.132;2023-04-03T02:55:31;98963.13;;;5.92;62.25
15694;BME280;7947;48.834;9.132;2023-04-03T02:58:33;98960.22;;;5.93;61.78
15694;BME280;7947;48.834;9.132;2023-04-03T03:01:36;98958.16;;;5.95;61.04
15694;BME280;7947;48.834;9.132;2023-04-03T03:04:41;98964.06;;;5.97;61.73
15694;BME280;7947;48.834;9.132;2023-04-03T03:07:44;98958.50;;;5.99;59.70
15694;BME280;7947;48.834;9.132;2023-04-03T03:10:46;98959.88;;;5.90;60.70
15694;BME280;7947;48.834;9.132;2023-04-03T03:13:49;98956.09;;;5.97;60.27
15694;BME280;7947;48.834;9.132;2023-04-03T03:16:52;98959.78;;;5.96;60.66
15694;BME280;7947;48.834;9.132;2023-04-03T03:19:56;98952.97;;;6.00;59.78
15694;BME280;7947;48.834;9.132;2023-04-03T03:22:59;98947.28;;;5.97;60.69
15694;BME280;7947;48.834;9.132;2023-04-03T03:26:03;98948.69;;;5.99;60.16
15694;BME280;7947;48.834;9.132;2023-04-03T03:29:06;98946.84;;;6.00;60.37
15694;BME280;7947;48.834;9.132;2023-04-03T03:32:09;98945.38;;;6.04;59.67
15694;BME280;7947;48.834;9.132;2023-04-03T03:35:13;98942.69;;;6.04;60.47
15694;BME280;7947;48.834;9.132;2023-04-03T03:38:16;98941.38;;;5.95;59.69
15694;BME280;7947;48.834;9.132;2023-04-03T03:41:19;98949.72;;;5.98;60.05
15694;BME280;7947;48.834;9.132;2023-04-03T03:44:22;98940.94;;;5.98;61.13
15694;BME280;7947;48.834;9.132;2023-04-03T03:47:24;98944.03;;;5.95;60.18
15694;BME280;7947;48.834;9.132;2023-04-03T03:50:29;98944.84;;;5.95;61.12
15694;BME280;7947;48.834;9.132;2023-04-03T03:53:31;98948.09;;;5.97;61.36
15694;BME280;7947;48.834;9.132;2023-04-03T03:56:34;98943.94;;;6.01;60.29
15694;BME280;7947;48.834;9.132;2023-04-03T03:59:37;98953.19;;;5.99;60.48
15694;BME280;7947;48.834;9.132;2023-04-03T04:02:42;98951.88;;;5.90;59.85
15694;BME280;7947;48.834;9.132;2023-04-03T04:05:46;98955.59;;;5.71;60.77
15694;BME280;7947;48.834;9.132;2023-04-03T04:08:49;98952.25;;;5.57;62.12
15694;BME280;7947;48.834;9.132;2023-04-03T04:11:52;98958.09;;;5.47;62.75
15694;BME280;7947;48.834;9.132;2023-04-03T04:14:54;98950.78;;;5.43;63.11
15694;BME280;7947;48.834;9.132;2023-04-03T04:17:57;98970.22;;;5.43;62.70
15694;BME280;7947;48.834;9.132;2023-04-03T04:21:01;98962.38;;;5.48;60.64
15694;BME280;7947;48.834;9.132;2023-04-03T04:24:05;98953.56;;;5.48;60.36
15694;BME280;7947;48.834;9.132;2023-04-03T04:27:08;98963.13;;;5.37;61.59
15694;BME280;7947;48.834;9.132;2023-04-03T04:30:12;98966.38;;;5.39;61.25
15694;BME280;7947;48.834;9.132;2023-04-03T04:33:15;98961.19;;;5.44;61.34
15694;BME280;7947;48.834;9.132;2023-04-03T04:36:19;98963.56;;;5.53;61.44
15694;BME280;7947;48.834;9.132;2023-04-03T04:39:22;98958.31;;;5.64;61.19
15694;BME280;7947;48.834;9.132;2023-04-03T04:42:25;98961.34;;;5.68;60.11
15694;BME280;7947;48.834;9.132;2023-04-03T04:45:28;98959.25;;;5.70;60.87
15694;BME280;7947;48.834;9.132;2023-04-03T04:48:31;98956.75;;;5.75;59.41
15694;BME280;7947;48.834;9.132;2023-04-03T04:51:35;98959.84;;;5.72;58.83
15694;BME280;7947;48.834;9.132;2023-04-03T04:54:51;98961.91;;;5.70;56.59
15694;BME280;7947;48.834;9.132;2023-04-03T04:57:54;98967.25;;;5.70;58.15
15694;BME280;7947;48.834;9.132;2023-04-03T05:01:00;98957.41;;;5.70;58.05
15694;BME280;7947;48.834;9.132;2023-04-03T05:04:02;98976.47;;;5.67;58.49
15694;BME280;7947;48.834;9.132;2023-04-03T05:07:06;98972.78;;;5.68;58.18
15694;BME280;7947;48.834;9.132;2023-04-03T05:10:09;98974.03;;;5.66;59.26
15694;BME280;7947;48.834;9.132;2023-04-03T05:13:13;98976.63;;;5.72;59.01
15694;BME280;7947;48.834;9.132;2023-04-03T05:16:15;98983.72;;;5.78;58.76
15694;BME280;7947;48.834;9.132;2023-04-03T05:19:18;98991.03;;;5.83;58.76
15694;BME280;7947;48.834;9.132;2023-04-03T05:22:23;98983.72;;;5.78;58.67
15694;BME280;7947;48.834;9.132;2023-04-03T05:25:26;98989.81;;;5.85;58.69
15694;BME280;7947;48.834;9.132;2023-04-03T05:28:29;98995.19;;;5.97;58.80
15694;BME280;7947;48.834;9.132;2023-04-03T05:31:32;98996.25;;;5.96;58.78
15694;BME280;7947;48.834;9.132;2023-04-03T05:34:35;98993.59;;;5.96;60.17
15694;BME280;7947;48.834;9.132;2023-04-03T05:37:39;98991.72;;;5.96;60.19
15694;BME280;7947;48.834;9.132;2023-04-03T05:40:42;98999.09;;;5.94;60.88
15694;BME280;7947;48.834;9.132;2023-04-03T05:43:45;98993.13;;;5.99;61.82
15694;BME280;7947;48.834;9.132;2023-04-03T05:46:48;98995.94;;;6.04;61.02
15694;BME280;7947;48.834;9.132;2023-04-03T05:49:52;99002.88;;;6.05;60.66
15694;BME280;7947;48.834;9.132;2023-04-03T05:52:57;99001.03;;;6.05;61.50
15694;BME280;7947;48.834;9.132;2023-04-03T05:56:00;99004.72;;;6.04;60.20
15694;BME280;7947;48.834;9.132;2023-04-03T05:59:03;99012.13;;;6.02;60.96
15694;BME280;7947;48.834;9.132;2023-04-03T06:02:06;99007.63;;;6.03;60.69
15694;BME280;7947;48.834;9.132;2023-04-03T06:05:09;99017.00;;;6.05;60.89
15694;BME280;7947;48.834;9.132;2023-04-03T06:08:14;99017.31;;;5.97;59.96
15694;BME280;7947;48.834;9.132;2023-04-03T06:11:17;99012.53;;;5.81;60.66
15694;BME280;7947;48.834;9.132;2023-04-03T06:14:20;99014.63;;;5.79;60.32
15694;BME280;7947;48.834;9.132;2023-04-03T06:17:23;99027.13;;;5.79;60.22
15694;BME280;7947;48.834;9.132;2023-04-03T06:20:26;99019.50;;;5.82;59.87
15694;BME280;7947;48.834;9.132;2023-04-03T06:23:30;99025.63;;;5.65;60.20
15694;BME280;7947;48.834;9.132;2023-04-03T06:26:34;99031.19;;;5.63;60.01
15694;BME280;7947;48.834;9.132;2023-04-03T06:29:38;99036.34;;;5.58;60.15
15694;BME280;7947;48.834;9.132;2023-04-03T06:32:41;99035.09;;;5.61;60.68
15694;BME280;7947;48.834;9.132;2023-04-03T06:35:45;99041.75;;;5.52;62.23
15694;BME280;7947;48.834;9.132;2023-04-03T06:38:50;99034.03;;;5.62;61.87
15694;BME280;7947;48.834;9.132;2023-04-03T06:41:52;99034.94;;;5.56;61.09
15694;BME280;7947;48.834;9.132;2023-04-03T06:44:55;99027.75;;;5.56;61.29
15694;BME280;7947;48.834;9.132;2023-04-03T06:47:58;99039.78;;;5.40;61.48
15694;BME280;7947;48.834;9.132;2023-04-03T06:51:01;99043.63;;;5.44;62.17
15694;BME280;7947;48.834;9.132;2023-04-03T06:54:06;99041.34;;;5.48;62.28
15694;BME280;7947;48.834;9.132;2023-04-03T06:57:09;99040.94;;;5.51;63.15
15694;BME280;7947;48.834;9.132;2023-04-03T07:00:13;99048.63;;;5.59;62.78
15694;BME280;7947;48.834;9.132;2023-04-03T07:03:17;99044.69;;;5.62;62.53
15694;BME280;7947;48.834;9.132;2023-04-03T07:06:21;99044.69;;;5.62;62.67
15694;BME280;7947;48.834;9.132;2023-04-03T07:09:25;99047.06;;;5.52;63.21
15694;BME280;7947;48.834;9.132;2023-04-03T07:12:28;99050.53;;;5.52;64.71
15694;BME280;7947;48.834;9.132;2023-04-03T07:15:31;99054.41;;;5.74;64.33
15694;BME280;7947;48.834;9.132;2023-04-03T07:18:35;99057.91;;;5.93;62.03
15694;BME280;7947;48.834;9.132;2023-04-03T07:21:38;99065.16;;;6.04;62.73
15694;BME280;7947;48.834;9.132;2023-04-03T07:24:43;99053.88;;;6.20;62.80
15694;BME280;7947;48.834;9.132;2023-04-03T07:27:46;99056.53;;;6.38;61.50
15694;BME280;7947;48.834;9.132;2023-04-03T07:30:51;99053.41;;;6.41;62.12
15694;BME280;7947;48.834;9.132;2023-04-03T07:33:55;99070.03;;;6.25;61.88
15694;BME280;7947;48.834;9.132;2023-04-03T07:36:58;99062.41;;;6.28;62.45
15694;BME280;7947;48.834;9.132;2023-04-03T07:40:05;99067.13;;;6.26;60.96
15694;BME280;7947;48.834;9.132;2023-04-03T07:43:08;99072.28;;;6.39;61.85
15694;BME280;7947;48.834;9.132;2023-04-03T07:46:11;99065.25;;;6.45;61.65
15694;BME280;7947;48.834;9.132;2023-04-03T07:49:14;99070.81;;;6.73;60.60
15694;BME280;7947;48.834;9.132;2023-04-03T07:52:19;99082.16;;;6.69;60.78
15694;BME280;7947;48.834;9.132;2023-04-03T07:55:23;99065.72;;;6.83;61.93
15694;BME280;7947;48.834;9.132;2023-04-03T07:58:26;99076.81;;;6.98;59.44
15694;BME280;7947;48.834;9.132;2023-04-03T08:01:29;99074.47;;;6.90;59.70
15694;BME280;7947;48.834;9.132;2023-04-03T08:04:34;99071.03;;;6.72;59.39
15694;BME280;7947;48.834;9.132;2023-04-03T08:07:37;99082.06;;;6.75;61.30
15694;BME280;7947;48.834;9.132;2023-04-03T08:10:42;99080.94;;;6.83;61.09
15694;BME280;7947;48.834;9.132;2023-04-03T08:13:45;99084.06;;;6.91;61.62
15694;BME280;7947;48.834;9.132;2023-04-03T08:16:48;99082.66;;;6.77;61.13
15694;BME280;7947;48.834;9.132;2023-04-03T08:19:52;99090.22;;;6.62;61.52
15694;BME280;7947;48.834;9.132;2023-04-03T08:22:55;99083.63;;;6.65;61.44
15694;BME280;7947;48.834;9.132;2023-04-03T08:25:59;99092.66;;;6.93;61.65
15694;BME280;7947;48.834;9.132;2023-04-03T08:29:02;99091.13;;;7.27;60.90
15694;BME280;7947;48.834;9.132;2023-04-03T08:32:05;99078.47;;;7.34;59.08
15694;BME280;7947;48.834;9.132;2023-04-03T08:35:08;99082.22;;;7.45;59.64
15694;BME280;7947;48.834;9.132;2023-04-03T08:38:12;99081.50;;;7.61;59.74
15694;BME280;7947;48.834;9.132;2023-04-03T08:41:20;99087.56;;;7.56;58.51
15694;BME280;7947;48.834;9.132;2023-04-03T08:44:38;99080.13;;;7.70;57.47
15694;BME280;7947;48.834;9.132;2023-04-03T08:47:48;99084.63;;;7.81;58.63
15694;BME280;7947;48.834;9.132;2023-04-03T08:50:59;99084.88;;;7.91;57.61
15694;BME280;7947;48.834;9.132;2023-04-03T08:54:06;99081.06;;;7.75;58.55
15694;BME280;7947;48.834;9.132;2023-04-03T08:57:25;99094.63;;;7.51;58.32
15694;BME280;7947;48.834;9.132;2023-04-03T09:00:37;99102.50;;;7.34;58.23
15694;BME280;7947;48.834;9.132;2023-04-03T09:03:44;99096.91;;;7.36;59.07
15694;BME280;7947;48.834;9.132;2023-04-03T09:06:51;99096.91;;;7.36;59.89
15694;BME280;7947;48.834;9.132;2023-04-03T09:09:56;99106.22;;;7.33;59.18
15694;BME280;7947;48.834;9.132;2023-04-03T09:13:07;99098.91;;;7.52;59.73
15694;BME280;7947;48.834;9.132;2023-04-03T09:16:20;99092.88;;;7.79;57.12
15694;BME280;7947;48.834;9.132;2023-04-03T09:19:34;99093.47;;;7.93;57.11
15694;BME280;7947;48.834;9.132;2023-04-03T09:22:41;99097.75;;;7.82;57.10
15694;BME280;7947;48.834;9.132;2023-04-03T09:25:56;99096.72;;;7.60;55.36
15694;BME280;7947;48.834;9.132;2023-04-03T09:29:05;99096.38;;;7.57;57.17
15694;BME280;7947;48.834;9.132;2023-04-03T09:32:19;99091.38;;;7.60;56.61
15694;BME280;7947;48.834;9.132;2023-04-03T09:35:26;99096.81;;;7.54;57.43
15694;BME280;7947;48.834;9.132;2023-04-03T09:39:02;99089.06;;;7.41;56.70
15694;BME280;7947;48.834;9.132;2023-04-03T09:42:14;99089.97;;;7.58;57.85
15694;BME280;7947;48.834;9.132;2023-04-03T09:45:24;99089.41;;;7.67;54.93
15694;BME280;7947;48.834;9.132;2023-04-03T09:48:28;99094.50;;;7.69;54.50
15694;BME280;7947;48.834;9.132;2023-04-03T09:51:31;99086.72;;;7.79;54.93
15694;BME280;7947;48.834;9.132;2023-04-03T09:54:36;99087.56;;;7.79;54.85
15694;BME280;7947;48.834;9.132;2023-04-03T09:57:41;99085.47;;;7.70;55.69
15694;BME280;7947;48.834;9.132;2023-04-03T10:00:54;99088.47;;;7.85;56.65
15694;BME280;7947;48.834;9.132;2023-04-03T10:04:07;99082.09;;;7.97;55.46
15694;BME280;7947;48.834;9.132;2023-04-03T10:07:28;99081.00;;;8.10;54.41
15694;BME280;7947;48.834;9.132;2023-04-03T10:10:31;99086.91;;;8.23;52.24
15694;BME280;7947;48.834;9.132;2023-04-03T10:13:34;99078.81;;;8.07;53.03
15694;BME280;7947;48.834;9.132;2023-04-03T10:16:57;99078.56;;;8.08;53.11
15694;BME280;7947;48.834;9.132;2023-04-03T10:20:07;99074.28;;;7.96;53.60
15694;BME280;7947;48.834;9.132;2023-04-03T10:23:17;99070.59;;;7.74;53.97
15694;BME280;7947;48.834;9.132;2023-04-03T10:26:29;99071.53;;;7.68;55.89
15694;BME280;7947;48.834;9.132;2023-04-03T10:29:40;99069.78;;;7.62;55.90
15694;BME280;7947;48.834;9.132;2023-04-03T10:32:54;99075.22;;;7.44;55.44
15694;BME280;7947;48.834;9.132;2023-04-03T10:36:06;99079.06;;;7.36;53.40
15694;BME280;7947;48.834;9.132;2023-04-03T10:39:18;99066.28;;;7.26;52.95
15694;BME280;7947;48.834;9.132;2023-04-03T10:42:28;99077.75;;;7.15;54.35
15694;BME280;7947;48.834;9.132;2023-04-03T10:45:48;99068.00;;;7.09;54.30
15694;BME280;7947;48.834;9.132;2023-04-03T10:49:04;99079.25;;;7.11;55.40
15694;BME280;7947;48.834;9.132;2023-04-03T10:52:14;99072.41;;;7.04;52.97
15694;BME280;7947;48.834;9.132;2023-04-03T10:55:26;99075.69;;;7.17;52.57
15694;BME280;7947;48.834;9.132;2023-04-03T10:58:34;99073.03;;;7.29;51.12
15694;BME280;7947;48.834;9.132;2023-04-03T11:01:41;99064.53;;;7.20;52.23
15694;BME280;7947;48.834;9.132;2023-04-03T11:04:48;99074.53;;;7.25;53.19
15694;BME280;7947;48.834;9.132;2023-04-03T11:07:57;99071.78;;;7.43;52.91
15694;BME280;7947;48.834;9.132;2023-04-03T11:11:06;99062.25;;;7.59;52.67
15694;BME280;7947;48.834;9.132;2023-04-03T11:14:14;99066.88;;;7.75;52.02
15694;BME280;7947;48.834;9.132;2023-04-03T11:17:27;99062.94;;;7.89;50.76
15694;BME280;7947;48.834;9.132;2023-04-03T11:20:34;99057.91;;;7.92;49.49
15694;BME280;7947;48.834;9.132;2023-04-03T11:23:40;99060.16;;;7.95;50.44
15694;BME280;7947;48.834;9.132;2023-04-03T11:26:51;99060.34;;;7.94;50.63
15694;BME280;7947;48.834;9.132;2023-04-03T11:29:56;99056.66;;;7.95;49.49
15694;BME280;7947;48.834;9.132;2023-04-03T11:36:38;99056.78;;;7.77;50.80
15694;BME280;7947;48.834;9.132;2023-04-03T11:39:51;99053.78;;;7.73;50.30
15694;BME280;7947;48.834;9.132;2023-04-03T11:43:05;99049.94;;;7.81;49.72
15694;BME280;7947;48.834;9.132;2023-04-03T11:46:09;99052.34;;;7.82;49.05
15694;BME280;7947;48.834;9.132;2023-04-03T11:52:58;99048.22;;;7.52;51.36
15694;BME280;7947;48.834;9.132;2023-04-03T11:56:04;99047.75;;;7.55;49.67
15694;BME280;7947;48.834;9.132;2023-04-03T11:59:24;99037.75;;;7.62;49.85
15694;BME280;7947;48.834;9.132;2023-04-03T12:02:36;99039.03;;;7.71;49.73
15694;BME280;7947;48.834;9.132;2023-04-03T12:05:42;99035.66;;;7.87;50.68
15694;BME280;7947;48.834;9.132;2023-04-03T12:08:47;99030.16;;;8.05;51.49
15694;BME280;7947;48.834;9.132;2023-04-03T12:11:53;99028.25;;;8.29;50.46
15694;BME280;7947;48.834;9.132;2023-04-03T12:15:16;99028.56;;;8.44;48.14
15694;BME280;7947;48.834;9.132;2023-04-03T12:18:40;99028.63;;;8.49;47.22
15694;BME280;7947;48.834;9.132;2023-04-03T12:25:48;99026.16;;;8.19;46.81
15694;BME280;7947;48.834;9.132;2023-04-03T12:28:52;99024.44;;;8.01;47.22
15694;BME280;7947;48.834;9.132;2023-04-03T12:32:06;99028.53;;;7.92;48.00
15694;BME280;7947;48.834;9.132;2023-04-03T12:35:20;99023.31;;;7.86;47.45
15694;BME280;7947;48.834;9.132;2023-04-03T12:38:45;99013.81;;;7.90;47.64
15694;BME280;7947;48.834;9.132;2023-04-03T12:42:04;99008.97;;;8.15;47.83
15694;BME280;7947;48.834;9.132;2023-04-03T12:45:17;99013.16;;;8.34;48.51
15694;BME280;7947;48.834;9.132;2023-04-03T12:48:25;99012.59;;;8.49;47.32
15694;BME280;7947;48.834;9.132;2023-04-03T12:51:33;99013.75;;;8.53;45.42
15694;BME280;7947;48.834;9.132;2023-04-03T12:54:38;99017.63;;;8.45;47.35
15694;BME280;7947;48.834;9.132;2023-04-03T12:57:44;99016.41;;;8.25;47.21
15694;BME280;7947;48.834;9.132;2023-04-03T13:00:59;99026.34;;;8.01;46.99
15694;BME280;7947;48.834;9.132;2023-04-03T13:04:02;99016.44;;;8.01;47.46
15694;BME280;7947;48.834;9.132;2023-04-03T13:07:05;99010.53;;;7.99;47.64
15694;BME280;7947;48.834;9.132;2023-04-03T13:10:20;98998.22;;;7.98;48.63
15694;BME280;7947;48.834;9.132;2023-04-03T13:13:25;99007.63;;;8.01;46.30
15694;BME280;7947;48.834;9.132;2023-04-03T13:16:27;98999.44;;;8.19;46.69
15694;BME280;7947;48.834;9.132;2023-04-03T13:19:31;99004.13;;;8.40;47.55
15694;BME280;7947;48.834;9.132;2023-04-03T13:22:35;99000.84;;;8.50;46.85
15694;BME280;7947;48.834;9.132;2023-04-03T13:25:43;98999.19;;;8.60;47.72
15694;BME280;7947;48.834;9.132;2023-04-03T13:28:50;99000.81;;;8.61;46.98
15694;BME280;7947;48.834;9.132;2023-04-03T13:31:55;98996.00;;;8.63;47.01
15694;BME280;7947;48.834;9.132;2023-04-03T13:34:59;98999.50;;;8.64;46.92
15694;BME280;7947;48.834;9.132;2023-04-03T13:38:23;98990.50;;;8.53;44.57
15694;BME280;7947;48.834;9.132;2023-04-03T13:41:30;98991.28;;;8.54;45.93
15694;BME280;7947;48.834;9.132;2023-04-03T13:44:36;98987.03;;;8.69;44.85
15694;BME280;7947;48.834;9.132;2023-04-03T13:47:42;98987.44;;;8.61;44.33
15694;BME280;7947;48.834;9.132;2023-04-03T13:50:57;98980.78;;;8.64;44.73
15694;BME280;7947;48.834;9.132;2023-04-03T13:54:16;98995.47;;;8.61;45.20
15694;BME280;7947;48.834;9.132;2023-04-03T13:57:20;98983.22;;;8.65;44.45
15694;BME280;7947;48.834;9.132;2023-04-03T14:00:36;98987.59;;;8.71;42.48
15694;BME280;7947;48.834;9.132;2023-04-03T14:03:43;98988.75;;;8.75;44.87
15694;BME280;7947;48.834;9.132;2023-04-03T14:06:47;98987.78;;;8.81;43.53
15694;BME280;7947;48.834;9.132;2023-04-03T14:09:51;98983.63;;;8.90;44.76
15694;BME280;7947;48.834;9.132;2023-04-03T14:12:55;98982.53;;;8.86;44.64
15694;BME280;7947;48.834;9.132;2023-04-03T14:15:59;98986.63;;;8.77;43.31
15694;BME280;7947;48.834;9.132;2023-04-03T14:19:19;98985.16;;;8.70;43.26
15694;BME280;7947;48.834;9.132;2023-04-03T14:22:26;98984.41;;;8.58;44.33
15694;BME280;7947;48.834;9.132;2023-04-03T14:25:30;98977.53;;;8.45;45.30
15694;BME280;7947;48.834;9.132;2023-04-03T14:28:33;98974.59;;;8.30;46.27
15694;BME280;7947;48.834;9.132;2023-04-03T14:31:38;98970.97;;;8.36;45.16
15694;BME280;7947;48.834;9.132;2023-04-03T14:34:42;98963.97;;;8.35;42.28
15694;BME280;7947;48.834;9.132;2023-04-03T14:37:46;98964.78;;;8.36;43.28
15694;BME280;7947;48.834;9.132;2023-04-03T14:40:49;98968.44;;;8.46;42.70
15694;BME280;7947;48.834;9.132;2023-04-03T14:43:52;98972.81;;;8.36;41.67
15694;BME280;7947;48.834;9.132;2023-04-03T14:46:57;98971.50;;;8.38;43.28
15694;BME280;7947;48.834;9.132;2023-04-03T14:50:00;98960.22;;;8.81;44.15
15694;BME280;7947;48.834;9.132;2023-04-03T14:53:03;98961.44;;;9.23;43.69
15694;BME280;7947;48.834;9.132;2023-04-03T14:56:12;98956.09;;;9.45;41.94
15694;BME280;7947;48.834;9.132;2023-04-03T14:59:15;98955.13;;;9.51;43.41
15694;BME280;7947;48.834;9.132;2023-04-03T15:02:30;98953.88;;;9.37;40.71
15694;BME280;7947;48.834;9.132;2023-04-03T15:05:35;98952.28;;;9.57;42.56
15694;BME280;7947;48.834;9.132;2023-04-03T15:08:39;98948.19;;;9.71;40.10
15694;BME280;7947;48.834;9.132;2023-04-03T15:11:42;98941.50;;;9.74;40.37
15694;BME280;7947;48.834;9.132;2023-04-03T15:14:45;98950.34;;;9.96;39.45
15694;BME280;7947;48.834;9.132;2023-04-03T15:18:02;98942.66;;;10.26;40.10
15694;BME280;7947;48.834;9.132;2023-04-03T15:21:06;98943.09;;;10.71;39.77
15694;BME280;7947;48.834;9.132;2023-04-03T15:24:10;98948.03;;;11.16;39.09
15694;BME280;7947;48.834;9.132;2023-04-03T15:27:13;98943.63;;;11.47;38.11
15694;BME280;7947;48.834;9.132;2023-04-03T15:30:18;98936.59;;;11.36;38.46
15694;BME280;7947;48.834;9.132;2023-04-03T15:33:22;98946.34;;;10.73;38.54
15694;BME280;7947;48.834;9.132;2023-04-03T15:36:25;98953.72;;;10.08;39.97
15694;BME280;7947;48.834;9.132;2023-04-03T15:39:35;98949.41;;;9.42;40.33
15694;BME280;7947;48.834;9.132;2023-04-03T15:42:38;98955.78;;;9.03;42.47
15694;BME280;7947;48.834;9.132;2023-04-03T15:45:42;98947.59;;;8.76;42.37
15694;BME280;7947;48.834;9.132;2023-04-03T15:48:46;98957.41;;;8.71;42.83
15694;BME280;7947;48.834;9.132;2023-04-03T15:51:50;98946.03;;;8.97;42.74
15694;BME280;7947;48.834;9.132;2023-04-03T15:54:54;98951.31;;;9.25;39.47
15694;BME280;7947;48.834;9.132;2023-04-03T15:57:57;98940.97;;;9.34;38.85
15694;BME280;7947;48.834;9.132;2023-04-03T16:01:00;98943.84;;;9.10;38.54
15694;BME280;7947;48.834;9.132;2023-04-03T16:04:05;98943.13;;;8.98;39.90
15694;BME280;7947;48.834;9.132;2023-04-03T16:07:09;98938.81;;;9.14;40.12
15694;BME280;7947;48.834;9.132;2023-04-03T16:10:14;98947.03;;;9.29;40.87
15694;BME280;7947;48.834;9.132;2023-04-03T16:13:19;98944.91;;;9.09;40.63
15694;BME280;7947;48.834;9.132;2023-04-03T16:16:22;98937.19;;;8.96;41.49
15694;BME280;7947;48.834;9.132;2023-04-03T16:19:27;98944.03;;;8.87;41.69
15694;BME280;7947;48.834;9.132;2023-04-03T16:22:31;98957.38;;;8.54;40.33
15694;BME280;7947;48.834;9.132;2023-04-03T16:25:34;98967.38;;;8.19;41.18
15694;BME280;7947;48.834;9.132;2023-04-03T16:28:37;98960.38;;;7.90;42.29
15694;BME280;7947;48.834;9.132;2023-04-03T16:31:40;98960.78;;;7.82;42.47
15694;BME280;7947;48.834;9.132;2023-04-03T16:34:44;98960.25;;;7.68;43.10
15694;BME280;7947;48.834;9.132;2023-04-03T16:37:47;98964.19;;;7.54;43.78
15694;BME280;7947;48.834;9.132;2023-04-03T16:40:50;98963.38;;;7.65;43.68
15694;BME280;7947;48.834;9.132;2023-04-03T16:43:53;98963.34;;;7.77;44.35
15694;BME280;7947;48.834;9.132;2023-04-03T16:46:56;98960.53;;;7.83;44.90
15694;BME280;7947;48.834;9.132;2023-04-03T16:50:01;98964.38;;;7.87;43.71
15694;BME280;7947;48.834;9.132;2023-04-03T16:53:04;98967.94;;;7.93;42.98
15694;BME280;7947;48.834;9.132;2023-04-03T16:56:10;98973.66;;;7.85;43.67
15694;BME280;7947;48.834;9.132;2023-04-03T16:59:13;98967.72;;;7.83;43.82
15694;BME280;7947;48.834;9.132;2023-04-03T17:02:16;98967.38;;;7.91;43.89
15694;BME280;7947;48.834;9.132;2023-04-03T17:05:20;98968.19;;;7.91;42.87